Baileyville, Maine
Current Conditions -  °F | °C
As of 9:00 AM on Thursday 30 Oct 2014 (Local Time) from CYFC Reporting Station
Clear Clear  
Wind Chill: 42°   Ceiling: Unl
Heat Index: 45°   Visibility: 9mi
Dew Point: 41°   Wind: 5mph
Humidity: 87%   Direction: 210°SSW
Pressure: 29.82"   Gusts: NA
Location:  45.15°N, 67.41°W
Report Text: CYFC 301300Z AUTO 21004KT 180V260 9SM CLR 07/05 A2982 RMK SLP099
Loading
Personal Weather Stations






























Interactive Weather Map
Tropical Storm Tracking
New forecast layout! Learn more

10-Day Weather Forecast

Advertisements
Track Severe Weather on mobile